Jacksonville, FL (32224)

10:24 PM EST en Noviembre 28, 2014 (GMT -0500)
Windsor Parke | Change Station
CLOSE
Current Station
Estación meteorológica personal
Location: Jacksonville, FL
Altura: 30 ft
Estaciones meteorológicas cercanas
Aviso en curso: Frost Advisory

Alt 30 ft 30.27 °N, 81.46 °W | Updated 1 minute ago

Despejado
Despejado
40.3 ° F
Sensación térmica 40 ° F
N
0.0
Viento Variable Viento desde ENE
Gusts 0.0 mph

Hoy
Alta -- | Baja -- ° F
--% Posibilidad de precipitaciones
Ayer
Alta -- | Baja -- ° F
Precip. -- pul
7:02 AM 5:25 PM
Creciente, 47% visible
Presión 30.33 pul
Visibilidad 10.0 Millas
Nubes Despejado
Vientos helados 40 ° F
Punto de rocío 37 ° F
Humedad 88%
Precipitaciones 0.00 pul
Espesor de la nieve No disponible.
UV 0 de una escala de 12
Polen .40 de una escala de 12
Calidad del aire No disponible.
Flu Activity No disponible.
METAR KCRG 290253Z 00000KT 10SM CLR 05/03 A3033 RMK AO2 SLP271 T00500033 50001

More Conditions Fewer Conditions

Presión 30.33 pul
Visibilidad 10.0 Millas
Nubes Despejado
Vientos helados 40 ° F
Punto de rocío 37 ° F
Humedad 88%
Precipitaciones 0.00 pul
Espesor de la nieve No disponible.
UV 0 de una escala de 12
Polen .40 de una escala de 12
Calidad del aire No disponible.
Flu Activity No disponible.
METAR KCRG 290253Z 00000KT 10SM CLR 05/03 A3033 RMK AO2 SLP271 T00500033 50001

More Conditions Fewer Conditions

10-Day Weather Forecast

Almanac

Astronomía

Nov. 28, 2014 Salida Puesta
Hora real
Crepúsculo civil
Crepúsculo náutico
Crepúsculo astronómico
Luna
Horas de luz
Horas de luz
Tomorrow will be .
, % of the Moon is Illuminated

Extremos de hoy

Máximos del estado Bajos del estado

Community

WunderPhotos

Upload Photos

1,774,383 ¡fotos cargadas!

WunderBlogs® & News

Nearby

Calidad del aire

  Calidad del aire Índice AQ Contaminante
Not available.

Grosos de nieve

Estación Profundido Altura

Actividad de terremotos

Ciudad Distance Mag. Tiempo y dato
Magnitud mínima muestra es 2,5.

Temperaturas de aguas costeras

Lugar Temperatura

Estaciones meteorológicas cercanas